Latest Coastal Weather Observations for Onslow Airport

IDW60701

Issued at 4:32 pm WST Thursday 30 June 2016 (issued every 10 minutes, with the page automatically refreshed every 10 minutes)

About coastal observations | Map of coastal stations | Coastal observations for WA | Marine services | Other Formats
Station Details ID: 005017 Name: ONSLOW AIRPORT Lat: -21.67 Lon: 115.11 Height: 10.5 m
Data from the previous 72 hours. | See also: Recent months at Onslow Airport
Date/Time
WST
Temp
°C
Wind Pressure Rain since
9am
mm
Weather Cloud Vis
km
Sea
Height
m
Swell
Dir  Spd
kts
Gust
kts
hPa Trend Height
m
Period
s
Dir
30/04:30pm 22.9 NNE 13 16 1015.9 - 0.0 - - - - - - -
30/04:00pm 23.2 N 13 16 1015.7 - 0.0 - - - - - - -
30/03:30pm 24.0 N 13 15 1015.5 - 0.0 - - - - - - -
30/03:00pm 24.7 NNE 11 13 1015.4 - 0.0 - - - - - - -
30/02:30pm 24.9 NNE 10 13 1015.5 - 0.0 - - - - - - -
30/02:00pm 25.2 NNE 10 13 1015.6 - 0.0 - - - - - - -
30/01:30pm 27.2 NNE 10 13 1015.8 - 0.0 - - - - - - -
30/01:00pm 26.9 NE 11 13 1016.2 - 0.0 - - - - - - -
30/12:30pm 27.7 NNE 13 16 1016.6 - 0.0 - - - - - - -
30/12:00pm 27.5 E 7 10 1017.1 - 0.0 - - - - - - -
30/11:30am 26.1 SE 9 11 1017.5 - 0.0 - - - - - - -
30/11:00am 25.6 SE 12 13 1017.8 - 0.0 - - - - - - -
30/10:30am 25.4 SE 11 14 1018.0 - 0.0 - - - - - - -
30/10:00am 24.2 SE 13 16 1018.0 - 0.0 - - - - - - -
30/09:30am 23.8 SE 14 16 1018.3 - 0.0 - - - - - - -
30/09:00am 22.7 SSE 12 16 1018.3 - 0.0 - - - - - - -
30/08:30am 22.0 SSE 12 15 1018.1 - 0.0 - - - - - - -
30/08:00am 21.8 SSE 11 14 1017.8 - 0.0 - - - - - - -
30/07:30am 20.9 SSE 11 13 1017.6 - 0.0 - - - - - - -
30/07:00am 20.2 SSE 9 11 1017.4 - 0.0 - - - - - - -
30/06:30am 20.1 SSE 9 11 1017.1 - 0.0 - - - - - - -
30/06:00am 20.5 SSE 11 13 1016.7 - 0.0 - - - - - - -
30/05:30am 20.9 SSE 11 13 1016.8 - 0.0 - - - - - - -
30/05:00am 21.1 SSE 11 12 1016.9 - 0.0 - - - - - - -
30/04:30am 21.3 SSE 10 13 1017.3 - 0.0 - - - - - - -
30/04:00am 21.4 SSE 9 11 1017.3 - 0.0 - - - - - - -
30/03:30am 21.3 SSE 9 11 1017.5 - 0.0 - - - - - - -
30/03:00am 21.4 S 7 9 1017.7 - 0.0 - - - - - - -
30/02:30am 21.7 S 12 16 1017.7 - 0.0 - - - - - - -
30/02:00am 21.6 S 9 12 1018.1 - 0.0 - - - - - - -
30/01:30am 21.9 S 10 12 1018.5 - 0.0 - - - - - - -
30/01:00am 21.9 S 9 11 1018.7 - 0.0 - - - - - - -
30/12:30am 22.1 S 11 14 1018.7 - 0.0 - - - - - - -
30/12:00am 22.1 S 10 13 1018.8 - 0.0 - - - - - - -
 
Date/Time
WST
Temp
°C
Wind Pressure Rain since
9am
mm
Weather Cloud Vis
km
Sea
Height
m
Swell
Dir  Spd
kts
Gust
kts
hPa Trend Height
m
Period
s
Dir
29/11:30pm 22.3 S 10 13 1018.9 - 0.0 - - - - - - -
29/11:00pm 22.5 SSW 9 11 1019.1 - 0.0 - - - - - - -
29/10:30pm 22.5 S 9 11 1018.9 - 0.0 - - - - - - -
29/10:00pm 22.6 SSW 9 11 1018.9 - 0.0 - - - - - - -
29/09:30pm 22.5 SSW 7 8 1019.1 - 0.0 - - - - - - -
29/09:00pm 22.7 SSW 6 7 1018.9 - 0.0 - - - - - - -
29/08:30pm 23.0 SSW 7 8 1018.7 - 0.0 - - - - - - -
29/08:00pm 23.2 S 7 9 1018.4 - 0.0 - - - - - - -
29/07:30pm 23.6 S 8 10 1018.2 - 0.0 - - - - - - -
29/07:00pm 23.6 SSW 8 9 1018.0 - 0.0 - - - - - - -
29/06:30pm 23.6 SSW 7 9 1017.6 - 0.0 - - - - - - -
29/06:00pm 24.1 S 9 11 1017.2 - 0.0 - - - - - - -
29/05:30pm 24.8 S 10 13 1017.1 - 0.0 - - - - - - -
29/05:00pm 25.4 S 8 11 1016.8 - 0.0 - - - - - - -
29/04:30pm 25.3 W 5 6 1016.4 - 0.0 - - - - - - -
29/04:00pm 25.4 W 7 8 1016.2 - 0.0 - - - - - - -
29/03:30pm 26.2 W 7 9 1016.0 - 0.0 - - - - - - -
29/03:00pm 26.9 S 1 4 1015.9 - 0.0 - - - - - - -
29/02:30pm 26.6 WSW 5 7 1015.9 - 0.0 - - - - - - -
29/02:00pm 27.2 S 5 6 1016.1 - 0.0 - - - - - - -
29/01:30pm 27.3 SSE 5 7 1016.2 - 0.0 - - - - - - -
29/01:00pm 27.1 ESE 6 9 1016.6 - 0.0 - - - - - - -
29/12:30pm 26.5 ESE 7 9 1016.9 - 0.0 - - - - - - -
29/12:00pm 26.4 ESE 7 9 1017.3 - 0.0 - - - - - - -
29/11:30am 24.8 ESE 7 8 1018.0 - 0.0 - - - - - - -
29/11:00am 24.3 ESE 7 8 1018.0 - 0.0 - - - - - - -
29/10:30am 23.4 SE 8 10 1018.2 - 0.0 - - - - - - -
29/10:00am 22.6 SE 8 9 1018.4 - 0.0 - - - - - - -
29/09:30am 21.7 SSE 7 8 1018.4 - 0.0 - - - - - - -
29/09:00am 21.1 SE 8 10 1018.3 - 0.0 - - - - - - -
29/08:30am 20.2 SSE 7 9 1018.1 - 0.0 - - - - - - -
29/08:00am 19.5 S 6 8 1017.9 - 0.0 - - - - - - -
29/07:30am 19.3 SSE 5 6 1017.6 - 0.0 - - - - - - -
29/07:00am 19.0 SE 5 6 1017.2 - 0.0 - - - - - - -
29/06:30am 19.0 SSE 5 6 1017.0 - 0.0 - - - - - - -
29/06:00am 19.0 SSE 5 5 1016.8 - 0.0 - - - - - - -
29/05:30am 19.1 SE 5 6 1016.7 - 0.0 - - - - - - -
29/05:00am 19.2 S 5 6 1016.6 - 0.0 - - - - - - -
29/04:30am 19.4 S 5 6 1016.6 - 0.0 - - - - - - -
29/04:00am 19.5 S 7 8 1016.6 - 0.0 - - - - - - -
29/03:30am 19.6 S 7 7 1016.7 - 0.0 - - - - - - -
29/03:00am 19.5 SSW 5 7 1016.8 - 0.0 - - - - - - -
29/02:30am 19.5 SW 5 6 1017.2 - 0.0 - - - - - - -
29/02:00am 19.5 SSW 4 5 1017.4 - 0.0 - - - - - - -
29/01:30am 19.5 S 5 5 1017.5 - 0.0 - - - - - - -
29/01:00am 19.5 SSE 5 6 1017.5 - 0.0 - - - - - - -
29/12:30am 19.5 SSE 6 8 1017.6 - 0.0 - - - - - - -
29/12:00am 19.5 SSE 4 5 1017.6 - 0.0 - - - - - - -
 
Date/Time
WST
Temp
°C
Wind Pressure Rain since
9am
mm
Weather Cloud Vis
km
Sea
Height
m
Swell
Dir  Spd
kts
Gust
kts
hPa Trend Height
m
Period
s
Dir
28/11:30pm 19.6 SSE 5 6 1017.6 - 0.0 - - - - - - -
28/11:00pm 19.6 SSE 5 6 1017.7 - 0.0 - - - - - - -
28/10:30pm 19.9 SSW 5 6 1017.9 - 0.0 - - - - - - -
28/10:00pm 19.9 SSW 5 6 1018.0 - 0.0 - - - - - - -
28/09:30pm 19.7 SSW 6 7 1018.0 - 0.0 - - - - - - -
28/09:00pm 19.3 SSW 6 7 1017.8 - 0.0 - - - - - - -
28/08:30pm 18.8 SSW 6 8 1017.8 - 0.0 - - - - - - -
28/08:00pm 18.8 SW 6 7 1017.4 - 0.0 - - - - - - -
28/07:30pm 18.9 SW 5 6 1017.0 - 0.0 - - - - - - -
28/07:00pm 19.6 WSW 6 8 1016.7 - 0.0 - - - - - - -
28/06:30pm 19.9 SW 7 7 1016.3 - 0.0 - - - - - - -
28/06:00pm 20.6 W 5 6 1016.2 - 0.0 - - - - - - -
28/05:30pm 22.0 NW 7 8 1015.8 - 0.0 - - - - - - -
28/05:00pm 23.0 NNW 8 10 1015.7 - 0.0 - - - - - - -
28/04:30pm 23.8 NNW 8 10 1015.5 - 0.0 - - - - - - -
28/04:00pm 24.1 NNW 9 11 1015.4 - 0.0 - - - - - - -
28/03:30pm 24.5 N 11 13 1015.3 - 0.0 - - - - - - -
28/03:00pm 25.1 N 11 13 1015.3 - 0.0 - - - - - - -
28/02:30pm 24.8 N 11 15 1015.5 - 0.0 - - - - - - -
28/02:00pm 24.9 NNE 12 16 1015.7 - 0.0 - - - - - - -
28/01:30pm 25.1 NNE 14 17 1015.7 - 0.0 - - - - - - -
28/01:00pm 25.4 NNE 13 15 1016.0 - 0.0 - - - - - - -
28/12:30pm 25.0 ENE 13 15 1016.4 - 0.0 - - - - - - -
28/12:00pm 24.2 NE 13 16 1017.2 - 0.0 - - - - - - -
28/11:30am 24.4 NE 12 15 1017.6 - 0.0 - - - - - - -
28/11:00am 23.4 ENE 12 14 1017.9 - 0.0 - - - - - - -
28/10:30am 22.4 ENE 12 15 1018.1 - 0.0 - - - - - - -
28/10:00am 21.5 ENE 10 12 1018.4 - 0.0 - - - - - - -
28/09:30am 20.8 ENE 10 13 1018.4 - 0.0 - - - - - - -
28/09:00am 19.6 E 11 13 1018.3 - 0.0 - - - - - - -
28/08:30am 18.3 E 12 14 1017.8 - 0.0 - - - - - - -
28/08:00am 17.1 E 13 15 1017.4 - 0.0 - - - - - - -
28/07:30am 15.5 E 10 13 1017.4 - 0.0 - - - - - - -
28/07:00am 14.4 E 8 9 1017.2 - 0.0 - - - - - - -
28/06:30am 14.8 E 8 10 1017.0 - 0.0 - - - - - - -
28/06:00am 15.2 E 10 12 1016.3 - 0.0 - - - - - - -
28/05:30am 15.1 E 11 13 1016.0 - 0.0 - - - - - - -
28/05:00am 14.9 E 9 11 1016.1 - 0.0 - - - - - - -
28/04:30am 14.9 E 9 10 1016.1 - 0.0 - - - - - - -
28/04:00am 15.1 E 9 11 1016.3 - 0.0 - - - - - - -
28/03:30am 15.2 ENE 10 11 1016.1 - 0.0 - - - - - - -
28/03:00am 15.0 ENE 11 11 1016.3 - 0.0 - - - - - - -
28/02:30am 14.0 E 9 10 1016.4 - 0.0 - - - - - - -
28/02:00am 13.9 ESE 10 11 1016.8 - 0.0 - - - - - - -
28/01:30am 13.4 ESE 7 8 1017.0 - 0.0 - - - - - - -
28/01:00am 14.2 ESE 11 12 1017.0 - 0.0 - - - - - - -
28/12:30am 14.4 SE 9 13 1017.2 - 0.0 - - - - - - -
28/12:00am 15.0 SE 4 5 1017.4 - 0.0 - - - - - - -
 
Date/Time
WST
Temp
°C
Wind Pressure Rain since
9am
mm
Weather Cloud Vis
km
Sea
Height
m
Swell
Dir  Spd
kts
Gust
kts
hPa Trend Height
m
Period
s
Dir
27/11:30pm 15.8 SSE 5 5 1017.5 - 0.0 - - - - - - -
27/11:00pm 16.2 SE 4 5 1017.6 - 0.0 - - - - - - -
27/10:30pm 16.0 CALM 0 3 1017.6 - 0.0 - - - - - - -
27/10:00pm 16.0 ENE 2 5 1017.5 - 0.0 - - - - - - -
27/09:30pm 16.6 ENE 4 5 1017.6 - 0.0 - - - - - - -
27/09:00pm 16.9 ENE 4 4 1017.8 - 0.0 - - - - - - -
27/08:30pm 17.1 NNE 4 5 1017.8 - 0.0 - - - - - - -
27/08:00pm 17.4 CALM 0 4 1017.7 - 0.0 - - - - - - -
27/07:30pm 17.3 NNW 3 4 1017.6 - 0.0 - - - - - - -
27/07:00pm 17.8 N 6 7 1017.2 - 0.0 - - - - - - -
27/06:30pm 17.8 N 6 7 1016.9 - 0.0 - - - - - - -
27/06:00pm 18.4 N 7 8 1016.5 - 0.0 - - - - - - -
27/05:30pm 19.6 N 8 9 1016.2 - 0.0 - - - - - - -
27/05:00pm 20.4 N 8 10 1016.1 - 0.0 - - - - - - -

Other Formats:

Comma delimited format used in spreadsheet applications
http://www.bom.gov.au/fwo/IDW60701/IDW60701.95305.axf

JavaScript Object Notation format (JSON) in row-major order
http://www.bom.gov.au/fwo/IDW60701/IDW60701.95305.json